createdAt,value
2022-12-13T00:00:50.450Z,21.17
2022-12-13T00:02:51.872Z,21.73
2022-12-13T00:04:53.354Z,22.27
2022-12-13T00:06:54.865Z,21.70
2022-12-13T00:08:56.974Z,21.90
2022-12-13T00:11:03.268Z,22.08
2022-12-13T00:13:04.743Z,22.23
2022-12-13T00:15:07.058Z,21.95
2022-12-13T00:17:08.489Z,21.00
2022-12-13T00:19:09.909Z,23.00
2022-12-13T00:21:16.696Z,22.45
2022-12-13T00:23:18.648Z,22.00
2022-12-13T00:25:21.393Z,23.27
2022-12-13T00:27:23.302Z,22.77
2022-12-13T00:29:24.779Z,22.00
2022-12-13T00:31:56.546Z,23.02
2022-12-13T00:33:49.127Z,21.17
2022-12-13T00:35:50.581Z,22.95
2022-12-13T00:37:52.141Z,22.65
2022-12-13T00:39:53.569Z,21.80
2022-12-13T00:41:55.113Z,20.95
2022-12-13T00:43:56.919Z,21.98
2022-12-13T00:45:58.384Z,22.35
2022-12-13T00:48:00.193Z,23.45
2022-12-13T00:50:02.371Z,21.00
2022-12-13T00:52:04.034Z,21.10
2022-12-13T00:54:06.262Z,20.92
2022-12-13T00:56:12.837Z,20.30
2022-12-13T00:58:14.265Z,20.55
2022-12-13T01:00:15.805Z,20.30
2022-12-13T01:02:17.288Z,20.45
2022-12-13T01:04:18.801Z,20.10
2022-12-13T01:06:23.262Z,20.70
2022-12-13T01:08:24.766Z,19.40
2022-12-13T01:10:26.234Z,20.38
2022-12-13T01:12:27.675Z,20.30
2022-12-13T01:14:30.179Z,20.38
2022-12-13T01:16:31.755Z,20.45
2022-12-13T01:18:33.591Z,19.75
2022-12-13T01:20:35.057Z,19.73
2022-12-13T01:22:36.501Z,20.23
2022-12-13T01:24:38.571Z,20.33
2022-12-13T01:26:40.066Z,20.27
2022-12-13T01:28:41.739Z,19.77
2022-12-13T01:30:43.216Z,20.73
2022-12-13T01:32:44.785Z,19.90
2022-12-13T01:34:46.250Z,21.17
2022-12-13T01:36:48.325Z,20.30
2022-12-13T01:38:49.846Z,20.10
2022-12-13T01:40:58.989Z,20.98
2022-12-13T01:43:00.561Z,19.40
2022-12-13T01:45:07.189Z,20.92
2022-12-13T01:47:09.552Z,19.83
2022-12-13T01:49:19.357Z,19.88
2022-12-13T01:51:34.229Z,19.85
2022-12-13T01:53:39.246Z,20.02
2022-12-13T01:55:45.402Z,20.00
2022-12-13T01:57:49.505Z,20.80
2022-12-13T01:59:52.600Z,21.83
2022-12-13T02:01:54.046Z,20.23
2022-12-13T02:04:02.658Z,19.55
2022-12-13T02:06:12.926Z,21.38
2022-12-13T02:08:16.051Z,20.50
2022-12-13T02:10:17.765Z,19.60
2022-12-13T02:12:19.222Z,19.55
2022-12-13T02:14:20.687Z,18.92
2022-12-13T02:16:22.976Z,19.25
2022-12-13T02:18:36.709Z,19.73
2022-12-13T02:20:47.576Z,20.05
2022-12-13T02:23:23.872Z,20.98
2022-12-13T02:26:09.730Z,20.27
2022-12-13T02:28:40.604Z,20.73
2022-12-13T02:30:49.376Z,20.63
2022-12-13T02:33:03.411Z,20.00
2022-12-13T02:35:11.593Z,19.60
2022-12-13T02:37:22.900Z,19.67
2022-12-13T02:39:49.932Z,20.80
2022-12-13T02:41:54.473Z,20.75
2022-12-13T02:44:01.247Z,21.90
2022-12-13T02:46:05.344Z,21.23
2022-12-13T02:48:10.734Z,20.17
2022-12-13T02:50:14.781Z,20.52
2022-12-13T02:52:22.462Z,22.05
2022-12-13T02:54:24.824Z,21.05
2022-12-13T02:56:26.299Z,22.52
2022-12-13T02:58:34.979Z,21.08
2022-12-13T03:02:51.743Z,19.73
2022-12-13T03:05:32.951Z,20.48
2022-12-13T03:07:43.909Z,21.25
2022-12-13T03:09:54.047Z,20.98
2022-12-13T03:12:37.128Z,20.60
2022-12-13T03:14:55.310Z,20.27
2022-12-13T03:17:01.186Z,19.60
2022-12-13T03:19:06.026Z,20.10
2022-12-13T03:21:09.550Z,19.73
2022-12-13T03:23:11.307Z,19.73
2022-12-13T03:25:13.225Z,20.02
2022-12-13T03:27:32.997Z,20.95
2022-12-13T03:29:34.464Z,21.23
2022-12-13T03:31:35.928Z,20.55
2022-12-13T03:33:38.819Z,20.77
2022-12-13T03:35:45.798Z,21.65
2022-12-13T03:37:48.000Z,21.02
2022-12-13T03:39:49.700Z,20.50
2022-12-13T03:41:51.543Z,20.17
2022-12-13T03:43:53.023Z,21.23
2022-12-13T03:45:54.599Z,19.88
2022-12-13T03:47:56.061Z,20.17
2022-12-13T03:49:57.523Z,20.85
2022-12-13T03:52:18.947Z,20.77
2022-12-13T03:54:20.423Z,20.70
2022-12-13T03:56:21.878Z,19.85
2022-12-13T03:58:23.765Z,21.33
2022-12-13T04:00:25.239Z,20.50
2022-12-13T04:02:30.680Z,21.13
2022-12-13T04:04:33.087Z,21.23
2022-12-13T04:06:34.789Z,20.55
2022-12-13T04:08:37.334Z,19.88
2022-12-13T04:10:38.869Z,20.75
2022-12-13T04:13:00.470Z,20.15
2022-12-13T04:15:02.046Z,21.58
2022-12-13T04:17:03.618Z,21.05
2022-12-13T04:19:05.199Z,21.95
2022-12-13T04:21:07.189Z,22.55
2022-12-13T04:23:10.402Z,22.67
2022-12-13T04:25:12.532Z,21.48
2022-12-13T04:27:14.174Z,21.38
2022-12-13T04:29:15.764Z,22.63
2022-12-13T04:31:17.361Z,20.77
2022-12-13T04:33:20.974Z,22.77
2022-12-13T04:35:22.676Z,21.45
2022-12-13T04:37:24.166Z,21.75
2022-12-13T04:39:25.633Z,21.23
2022-12-13T04:41:37.635Z,21.23
2022-12-13T04:43:39.066Z,22.17
2022-12-13T04:45:41.002Z,21.52
2022-12-13T04:47:42.608Z,21.92
2022-12-13T04:49:44.145Z,21.80
2022-12-13T04:51:47.535Z,20.70
2022-12-13T04:53:49.981Z,20.67
2022-12-13T04:55:52.666Z,21.05
2022-12-13T04:57:54.119Z,21.88
2022-12-13T04:59:55.553Z,22.08
2022-12-13T05:01:57.056Z,22.30
2022-12-13T05:03:58.587Z,22.52
2022-12-13T05:06:00.034Z,22.45
2022-12-13T05:08:01.691Z,21.02
2022-12-13T05:10:03.909Z,22.30
2022-12-13T05:12:05.645Z,22.63
2022-12-13T05:14:23.815Z,21.27
2022-12-13T05:16:25.517Z,20.83
2022-12-13T05:18:27.823Z,21.77
2022-12-13T05:20:29.292Z,22.27
2022-12-13T05:22:30.789Z,22.08
2022-12-13T05:24:32.289Z,23.10
2022-12-13T05:26:33.735Z,21.20
2022-12-13T05:28:35.557Z,22.33
2022-12-13T05:30:41.021Z,22.15
2022-12-13T05:32:43.487Z,21.55
2022-12-13T05:34:46.198Z,21.02
2022-12-13T05:36:47.646Z,22.77
2022-12-13T05:38:49.133Z,20.65
2022-12-13T05:40:50.851Z,22.40
2022-12-13T05:43:01.256Z,21.88
2022-12-13T05:45:03.577Z,23.25
2022-12-13T05:47:05.063Z,21.80
2022-12-13T05:49:06.570Z,21.50
2022-12-13T05:51:10.125Z,21.05
2022-12-13T05:53:13.225Z,21.85
2022-12-13T05:55:31.901Z,20.83
2022-12-13T05:57:34.091Z,23.23
2022-12-13T05:59:35.691Z,21.55
2022-12-13T06:01:37.395Z,21.50
2022-12-13T06:03:45.649Z,20.90
2022-12-13T06:05:47.289Z,21.40
2022-12-13T06:07:52.182Z,21.35
2022-12-13T06:10:09.609Z,23.23
2022-12-13T06:12:32.058Z,22.65
2022-12-13T06:14:33.655Z,22.08
2022-12-13T06:16:35.515Z,23.00
2022-12-13T06:18:37.622Z,22.25
2022-12-13T06:20:39.133Z,22.33
2022-12-13T06:22:40.572Z,24.17
2022-12-13T06:24:42.319Z,24.20
2022-12-13T06:26:45.356Z,23.33
2022-12-13T06:28:47.205Z,23.38
2022-12-13T06:30:52.244Z,23.73
2022-12-13T06:32:53.756Z,24.63
2022-12-13T06:34:55.210Z,23.75
2022-12-13T06:36:58.495Z,25.15
2022-12-13T06:39:04.088Z,24.80
2022-12-13T06:41:11.152Z,23.88
2022-12-13T06:43:12.625Z,24.27
2022-12-13T06:45:14.187Z,24.95
2022-12-13T06:47:31.895Z,23.33
2022-12-13T06:49:33.825Z,24.08
2022-12-13T06:51:35.370Z,24.90
2022-12-13T06:53:38.725Z,25.67
2022-12-13T06:55:40.254Z,23.98
2022-12-13T06:57:41.982Z,25.83
2022-12-13T06:59:43.886Z,26.50
2022-12-13T07:01:50.678Z,26.00
2022-12-13T07:03:55.994Z,27.27
2022-12-13T07:06:03.413Z,25.75
2022-12-13T07:08:05.134Z,25.85
2022-12-13T07:10:06.906Z,28.15
2022-12-13T07:12:14.240Z,26.85
2022-12-13T07:14:15.681Z,26.92
2022-12-13T07:16:17.584Z,25.73
2022-12-13T07:18:19.266Z,25.33
2022-12-13T07:20:22.642Z,26.20
2022-12-13T07:22:24.114Z,27.95
2022-12-13T07:24:25.547Z,27.50
2022-12-13T07:26:27.086Z,27.48
2022-12-13T07:28:28.963Z,27.55
2022-12-13T07:30:41.073Z,25.98
2022-12-13T07:32:43.222Z,26.70
2022-12-13T07:34:44.655Z,26.58
2022-12-13T07:36:46.232Z,26.20
2022-12-13T07:38:55.362Z,27.80
2022-12-13T07:40:57.958Z,26.98
2022-12-13T07:42:59.476Z,26.88
2022-12-13T07:45:01.032Z,26.35
2022-12-13T07:47:02.589Z,29.35
2022-12-13T07:49:05.228Z,27.13
2022-12-13T07:51:13.992Z,26.58
2022-12-13T07:55:17.777Z,26.33
2022-12-13T07:57:19.221Z,25.73
2022-12-13T07:59:28.783Z,27.52
2022-12-13T08:01:36.722Z,27.40
2022-12-13T08:03:39.117Z,27.10
2022-12-13T08:05:40.622Z,27.73
2022-12-13T08:07:42.102Z,27.70
2022-12-13T08:09:48.012Z,27.20
2022-12-13T08:11:53.012Z,32.95
2022-12-13T08:13:54.943Z,27.23
2022-12-13T08:16:01.066Z,26.15
2022-12-13T08:18:03.952Z,33.13
2022-12-13T08:20:05.799Z,26.67
2022-12-13T08:22:14.213Z,26.05
2022-12-13T08:24:16.038Z,27.58
2022-12-13T08:26:17.532Z,27.27
2022-12-13T08:28:19.105Z,27.38
2022-12-13T08:30:23.089Z,29.40
2022-12-13T08:32:26.032Z,28.48
2022-12-13T08:34:27.506Z,26.90
2022-12-13T08:36:28.952Z,28.80
2022-12-13T08:38:30.408Z,27.65
2022-12-13T08:40:32.415Z,27.00
2022-12-13T08:42:33.905Z,29.02
2022-12-13T08:44:35.359Z,28.77
2022-12-13T08:46:36.858Z,30.95
2022-12-13T08:48:44.512Z,26.48
2022-12-13T08:50:46.351Z,27.60
2022-12-13T08:52:47.866Z,25.95
2022-12-13T08:54:49.500Z,27.63
2022-12-13T08:56:51.044Z,27.15
2022-12-13T08:58:52.538Z,29.58
2022-12-13T09:00:54.097Z,28.45
2022-12-13T09:02:57.870Z,27.17
2022-12-13T09:04:59.319Z,27.95
2022-12-13T09:07:01.394Z,26.48
2022-12-13T09:09:03.867Z,27.17
2022-12-13T09:11:10.491Z,28.55
2022-12-13T09:13:13.129Z,27.88
2022-12-13T09:15:34.987Z,28.70
2022-12-13T09:17:37.606Z,29.75
2022-12-13T09:19:39.264Z,30.80
2022-12-13T09:21:43.196Z,28.45
2022-12-13T09:23:45.645Z,28.70
2022-12-13T09:26:05.240Z,28.50
2022-12-13T09:28:08.956Z,27.92
2022-12-13T09:30:14.500Z,29.48
2022-12-13T09:32:16.096Z,27.30
2022-12-13T09:34:17.562Z,32.28
2022-12-13T09:36:20.910Z,28.15
2022-12-13T09:38:22.479Z,30.33
2022-12-13T09:40:27.297Z,31.98
2022-12-13T09:42:31.255Z,31.10
2022-12-13T09:44:45.201Z,30.20
2022-12-13T09:46:52.692Z,30.60
2022-12-13T09:49:01.757Z,31.98
2022-12-13T09:51:18.177Z,31.60
2022-12-13T09:53:25.371Z,30.58
2022-12-13T09:55:41.934Z,31.17
2022-12-13T09:57:44.210Z,33.13
2022-12-13T09:59:47.451Z,32.53
2022-12-13T10:01:49.077Z,32.30
2022-12-13T10:03:53.294Z,33.58
2022-12-13T10:06:13.813Z,32.53
2022-12-13T10:08:45.115Z,32.65
2022-12-13T10:10:46.587Z,33.35
2022-12-13T10:12:56.099Z,33.45
2022-12-13T10:15:02.833Z,34.45
2022-12-13T10:17:08.704Z,34.55
2022-12-13T10:19:29.283Z,35.22
2022-12-13T10:21:38.774Z,33.95
2022-12-13T10:24:15.285Z,34.53
2022-12-13T10:26:02.837Z,34.30
2022-12-13T10:28:06.304Z,35.00
2022-12-13T10:30:12.106Z,35.33
2022-12-13T10:32:14.081Z,34.35
2022-12-13T10:34:28.330Z,34.10
2022-12-13T10:36:38.460Z,31.65
2022-12-13T10:38:43.803Z,30.17
2022-12-13T10:40:45.858Z,34.28
2022-12-13T10:43:06.382Z,32.47
2022-12-13T10:45:16.178Z,32.17
2022-12-13T10:47:26.274Z,31.20
2022-12-13T10:49:37.593Z,32.55
2022-12-13T10:51:40.175Z,33.75
2022-12-13T10:53:49.936Z,33.42
2022-12-13T10:55:56.118Z,31.85
2022-12-13T10:58:07.547Z,31.95
2022-12-13T11:00:32.260Z,33.80
2022-12-13T11:02:33.707Z,33.83
2022-12-13T11:04:35.987Z,34.47
2022-12-13T11:06:45.806Z,34.00
2022-12-13T11:08:47.363Z,34.45
2022-12-13T11:11:00.710Z,33.45
2022-12-13T11:13:05.702Z,32.88
2022-12-13T11:15:14.523Z,30.02
2022-12-13T11:39:26.903Z,22.65
2022-12-13T11:41:33.890Z,22.85
2022-12-13T11:43:42.539Z,24.73
2022-12-13T11:45:51.031Z,22.95
2022-12-13T11:47:58.689Z,22.98
2022-12-13T11:50:05.422Z,23.88
2022-12-13T11:52:14.223Z,24.42
2022-12-13T11:56:31.637Z,24.35
2022-12-13T11:59:10.214Z,24.33
2022-12-13T12:01:18.192Z,24.33
2022-12-13T12:03:41.960Z,25.23
2022-12-13T12:06:09.332Z,23.70
2022-12-13T12:08:43.117Z,23.88
2022-12-13T12:10:50.185Z,23.27
2022-12-13T12:13:04.602Z,24.45
2022-12-13T12:15:15.958Z,24.52
2022-12-13T12:17:23.199Z,22.38
2022-12-13T12:19:37.034Z,24.20
2022-12-13T12:22:13.249Z,22.83
2022-12-13T12:24:37.946Z,23.80
2022-12-13T12:26:51.419Z,23.55
2022-12-13T12:29:08.142Z,24.23
2022-12-13T12:31:29.434Z,23.77
2022-12-13T12:34:00.801Z,23.08
2022-12-13T12:36:16.126Z,23.20
2022-12-13T12:38:27.128Z,23.52
2022-12-13T12:41:07.510Z,24.00
2022-12-13T12:43:25.947Z,24.48
2022-12-13T12:46:02.073Z,23.50
2022-12-13T12:50:51.690Z,23.65
2022-12-13T12:53:10.581Z,24.73
2022-12-13T12:55:15.051Z,24.65
2022-12-13T12:57:39.528Z,24.52
2022-12-13T13:00:09.553Z,23.55
2022-12-13T13:02:31.480Z,23.17
2022-12-13T13:04:39.236Z,24.02
2022-12-13T13:06:47.936Z,23.85
2022-12-13T13:09:05.125Z,23.88
2022-12-13T13:11:23.837Z,23.20
2022-12-13T13:13:45.975Z,23.08
2022-12-13T13:15:56.262Z,25.27
2022-12-13T13:17:59.715Z,24.15
2022-12-13T13:20:24.528Z,23.88
2022-12-13T13:22:32.271Z,23.13
2022-12-13T13:24:34.769Z,23.42
2022-12-13T13:26:39.235Z,24.30
2022-12-13T13:28:40.727Z,23.92
2022-12-13T13:31:04.058Z,25.35
2022-12-13T13:33:38.915Z,23.52
2022-12-13T13:35:43.422Z,23.80
2022-12-13T13:37:47.899Z,24.25
2022-12-13T13:40:02.109Z,23.50
2022-12-13T13:42:20.882Z,24.63
2022-12-13T13:44:54.755Z,24.60
2022-12-13T13:47:17.177Z,24.40
2022-12-13T13:49:18.669Z,23.80
2022-12-13T13:51:49.415Z,24.27
2022-12-13T13:54:29.931Z,23.95
2022-12-13T13:56:45.004Z,23.48
2022-12-13T13:59:06.304Z,22.55
2022-12-13T14:01:45.460Z,23.90
2022-12-13T14:04:14.912Z,25.08
2022-12-13T14:06:43.948Z,23.48
2022-12-13T14:08:59.170Z,24.40
2022-12-13T14:11:12.507Z,27.58
2022-12-13T14:13:32.480Z,22.60
2022-12-13T14:16:12.184Z,23.92
2022-12-13T14:18:40.209Z,23.88
2022-12-13T14:21:26.183Z,24.42
2022-12-13T14:23:53.692Z,24.25
2022-12-13T14:26:01.082Z,24.38
2022-12-13T14:28:27.558Z,24.65
2022-12-13T14:30:29.768Z,25.65
2022-12-13T14:32:37.099Z,24.38
2022-12-13T14:34:39.410Z,23.58
2022-12-13T14:36:44.001Z,25.33
2022-12-13T14:38:48.045Z,25.10
2022-12-13T14:40:52.832Z,23.75
2022-12-13T14:42:57.509Z,24.35
2022-12-13T14:45:31.223Z,25.58
2022-12-13T14:47:33.998Z,25.77
2022-12-13T14:49:39.453Z,25.75
2022-12-13T14:51:41.659Z,25.35
2022-12-13T14:53:43.580Z,25.23
2022-12-13T14:56:27.616Z,26.73
2022-12-13T14:58:29.642Z,25.67
2022-12-13T15:00:35.374Z,25.67
2022-12-13T15:02:36.895Z,25.52
2022-12-13T15:04:38.410Z,25.70
2022-12-13T15:06:39.975Z,26.08
2022-12-13T15:08:49.619Z,25.95
2022-12-13T15:10:54.596Z,27.17
2022-12-13T15:12:56.271Z,24.58
2022-12-13T15:15:05.377Z,26.85
2022-12-13T15:17:06.950Z,25.77
2022-12-13T15:19:31.307Z,25.38
2022-12-13T15:21:33.696Z,26.10
2022-12-13T15:23:48.728Z,24.00
2022-12-13T15:26:03.527Z,25.58
2022-12-13T15:28:05.994Z,25.65
2022-12-13T15:30:14.158Z,25.27
2022-12-13T15:32:19.145Z,25.50
2022-12-13T15:34:34.465Z,24.95
2022-12-13T15:36:38.466Z,25.77
2022-12-13T15:38:55.481Z,25.42
2022-12-13T15:40:57.145Z,25.20
2022-12-13T15:42:58.800Z,24.73
2022-12-13T15:45:03.129Z,25.02
2022-12-13T15:47:11.264Z,23.77
2022-12-13T15:49:35.686Z,24.95
2022-12-13T15:52:16.787Z,25.17
2022-12-13T15:54:21.806Z,22.45
2022-12-13T15:56:39.220Z,23.55
2022-12-13T15:58:40.675Z,24.45
2022-12-13T16:00:48.930Z,24.98
2022-12-13T16:03:16.983Z,26.73
2022-12-13T16:05:29.296Z,25.88
2022-12-13T16:07:39.825Z,26.40
2022-12-13T16:09:41.293Z,24.83
2022-12-13T16:11:49.964Z,27.52
2022-12-13T16:13:51.454Z,27.83
2022-12-13T16:16:26.947Z,27.27
2022-12-13T16:18:41.250Z,26.27
2022-12-13T16:20:44.023Z,26.30
2022-12-13T16:22:45.936Z,26.30
2022-12-13T16:24:48.756Z,27.10
2022-12-13T16:26:50.491Z,24.98
2022-12-13T16:28:53.367Z,27.15
2022-12-13T16:31:02.028Z,26.92
2022-12-13T16:33:18.768Z,26.23
2022-12-13T16:35:25.146Z,26.90
2022-12-13T16:37:27.518Z,26.98
2022-12-13T16:39:29.109Z,26.25
2022-12-13T16:41:31.378Z,26.90
2022-12-13T16:43:37.607Z,26.35
2022-12-13T16:45:45.698Z,26.73
2022-12-13T16:47:49.447Z,26.73
2022-12-13T16:49:51.113Z,26.83
2022-12-13T16:51:53.191Z,27.10
2022-12-13T16:53:54.649Z,26.42
2022-12-13T16:55:58.359Z,26.90
2022-12-13T16:58:03.864Z,26.88
2022-12-13T17:00:09.897Z,27.77
2022-12-13T17:02:17.665Z,26.70
2022-12-13T17:04:22.420Z,31.38
2022-12-13T17:06:24.920Z,31.63
2022-12-13T17:08:26.394Z,29.65
2022-12-13T17:10:28.282Z,28.90
2022-12-13T17:12:29.807Z,28.10
2022-12-13T17:14:31.240Z,27.70
2022-12-13T17:16:33.122Z,28.20
2022-12-13T17:18:34.600Z,27.05
2022-12-13T17:20:36.405Z,27.38
2022-12-13T17:22:38.429Z,26.95
2022-12-13T17:24:40.055Z,26.55
2022-12-13T17:26:54.190Z,26.25
2022-12-13T17:28:56.650Z,28.05
2022-12-13T17:31:06.296Z,27.05
2022-12-13T17:33:09.784Z,28.83
2022-12-13T17:35:16.399Z,26.63
2022-12-13T17:37:19.834Z,29.13
2022-12-13T17:39:21.397Z,28.30
2022-12-13T17:41:22.847Z,28.35
2022-12-13T17:43:33.048Z,28.75
2022-12-13T17:45:36.454Z,29.63
2022-12-13T17:47:39.231Z,29.23
2022-12-13T17:49:40.823Z,28.38
2022-12-13T17:51:42.357Z,26.67
2022-12-13T17:53:52.779Z,27.95
2022-12-13T17:55:56.621Z,26.98
2022-12-13T17:58:04.136Z,28.25
2022-12-13T18:00:06.897Z,26.95
2022-12-13T18:02:11.114Z,28.23
2022-12-13T18:04:13.018Z,27.15
2022-12-13T18:06:15.433Z,27.25
2022-12-13T18:08:18.398Z,28.23
2022-12-13T18:10:22.576Z,26.00
2022-12-13T18:13:06.763Z,26.20
2022-12-13T18:15:10.541Z,24.60
2022-12-13T18:17:12.040Z,26.40
2022-12-13T18:19:14.866Z,25.85
2022-12-13T18:21:17.904Z,25.42
2022-12-13T18:23:19.928Z,26.00
2022-12-13T18:25:21.389Z,26.92
2022-12-13T18:27:22.914Z,25.48
2022-12-13T18:29:24.400Z,26.98
2022-12-13T18:31:26.147Z,26.00
2022-12-13T18:33:28.072Z,28.00
2022-12-13T18:35:30.045Z,27.08
2022-12-13T18:37:31.710Z,25.10
2022-12-13T18:39:34.839Z,27.00
2022-12-13T18:41:36.361Z,26.77
2022-12-13T18:43:38.227Z,27.50
2022-12-13T18:45:39.685Z,28.83
2022-12-13T18:47:41.359Z,26.95
2022-12-13T18:49:43.279Z,28.23
2022-12-13T18:51:56.283Z,29.13
2022-12-13T18:53:58.308Z,30.40
2022-12-13T18:56:05.208Z,30.52
2022-12-13T18:58:06.636Z,31.40
2022-12-13T19:00:09.071Z,31.13
2022-12-13T19:02:14.375Z,30.63
2022-12-13T19:04:15.830Z,29.55
2022-12-13T19:06:19.879Z,29.98
2022-12-13T19:08:26.011Z,30.70
2022-12-13T19:10:27.795Z,28.50
2022-12-13T19:12:29.451Z,28.98
2022-12-13T19:14:30.890Z,29.23
2022-12-13T19:16:32.662Z,29.17
2022-12-13T19:18:35.333Z,29.52
2022-12-13T19:20:37.117Z,28.10
2022-12-13T19:22:39.350Z,27.17
2022-12-13T19:24:40.862Z,27.33
2022-12-13T19:26:42.393Z,27.10
2022-12-13T19:28:44.238Z,27.05
2022-12-13T19:30:47.653Z,26.73
2022-12-13T19:32:49.806Z,27.40
2022-12-13T19:34:51.255Z,28.30
2022-12-13T19:36:52.761Z,28.50
2022-12-13T19:38:55.916Z,30.60
2022-12-13T19:40:57.465Z,28.63
2022-12-13T19:42:58.934Z,27.55
2022-12-13T19:45:00.365Z,27.80
2022-12-13T19:47:01.870Z,27.70
2022-12-13T19:49:04.253Z,29.30
2022-12-13T19:51:08.170Z,27.35
2022-12-13T19:53:10.307Z,28.75
2022-12-13T19:55:11.840Z,26.77
2022-12-13T19:57:13.626Z,27.52
2022-12-13T19:59:15.087Z,29.38
2022-12-13T20:01:17.864Z,29.60
2022-12-13T20:03:19.366Z,30.08
2022-12-13T20:05:21.000Z,29.55
2022-12-13T20:07:23.816Z,28.67
2022-12-13T20:09:25.369Z,27.70
2022-12-13T20:11:26.951Z,26.50
2022-12-13T20:13:29.221Z,25.33
2022-12-13T20:15:31.087Z,25.10
2022-12-13T20:17:32.621Z,24.48
2022-12-13T20:19:34.045Z,24.70
2022-12-13T20:21:35.611Z,25.23
2022-12-13T20:23:38.310Z,23.67
2022-12-13T20:25:40.081Z,27.10
2022-12-13T20:27:41.852Z,23.95
2022-12-13T20:29:43.323Z,23.77
2022-12-13T20:31:52.098Z,24.58
2022-12-13T20:33:59.419Z,25.02
2022-12-13T20:36:25.164Z,24.48
2022-12-13T20:38:27.550Z,22.95
2022-12-13T20:40:29.024Z,22.67
2022-12-13T20:42:30.546Z,22.35
2022-12-13T20:44:32.171Z,24.05
2022-12-13T20:46:34.103Z,24.30
2022-12-13T20:48:38.853Z,23.63
2022-12-13T20:50:40.302Z,25.70
2022-12-13T20:52:44.131Z,24.77
2022-12-13T20:54:49.178Z,24.25
2022-12-13T20:56:51.123Z,25.98
2022-12-13T20:58:52.924Z,25.63
2022-12-13T21:00:54.850Z,25.30
2022-12-13T21:02:56.322Z,24.67
2022-12-13T21:04:57.784Z,24.30
2022-12-13T21:06:59.595Z,23.80
2022-12-13T21:09:03.010Z,25.63
2022-12-13T21:11:23.758Z,25.85
2022-12-13T21:13:25.613Z,25.05
2022-12-13T21:15:27.383Z,26.40
2022-12-13T21:17:28.819Z,27.23
2022-12-13T21:19:39.039Z,27.35
2022-12-13T21:21:41.429Z,26.38
2022-12-13T21:23:42.997Z,26.48
2022-12-13T21:25:44.445Z,26.23
2022-12-13T21:27:49.593Z,27.48
2022-12-13T21:29:51.015Z,26.48
2022-12-13T21:31:53.301Z,26.05
2022-12-13T21:33:57.607Z,26.27
2022-12-13T21:36:18.266Z,24.60
2022-12-13T21:38:19.783Z,23.98
2022-12-13T21:40:22.551Z,24.90
2022-12-13T21:42:24.004Z,25.60
2022-12-13T21:44:25.569Z,24.27
2022-12-13T21:46:54.758Z,25.90
2022-12-13T21:48:51.879Z,24.00
2022-12-13T21:50:53.326Z,25.33
2022-12-13T21:52:54.764Z,24.98
2022-12-13T21:55:15.170Z,23.90
2022-12-13T21:57:36.290Z,23.27
2022-12-13T21:59:37.730Z,25.52
2022-12-13T22:02:13.071Z,22.88
2022-12-13T22:04:15.922Z,23.95
2022-12-13T22:06:17.474Z,23.83
2022-12-13T22:08:19.056Z,24.92
2022-12-13T22:10:20.521Z,26.95
2022-12-13T22:12:30.893Z,44.35
2022-12-13T22:14:32.378Z,32.83
2022-12-13T22:16:34.025Z,27.33
2022-12-13T22:18:35.515Z,24.83
2022-12-13T22:20:37.020Z,23.08
2022-12-13T22:22:40.165Z,22.92
2022-12-13T22:24:41.602Z,23.90
2022-12-13T22:26:43.106Z,22.17
2022-12-13T22:28:44.962Z,24.23
2022-12-13T22:30:53.702Z,22.48
2022-12-13T22:34:57.117Z,21.80
2022-12-13T22:36:59.256Z,24.00
2022-12-13T22:39:00.971Z,36.53
2022-12-13T22:41:04.203Z,28.65
2022-12-13T22:43:05.652Z,24.33
2022-12-13T22:45:07.387Z,23.70
2022-12-13T22:47:08.895Z,29.25
2022-12-13T22:49:11.473Z,26.90
2022-12-13T22:51:15.461Z,26.08
2022-12-13T22:53:16.902Z,24.52
2022-12-13T22:55:18.320Z,25.08
2022-12-13T22:57:19.778Z,23.67
2022-12-13T22:59:21.255Z,23.40
2022-12-13T23:01:27.997Z,22.92
2022-12-13T23:03:29.466Z,24.40
2022-12-13T23:05:30.904Z,22.73
2022-12-13T23:07:32.405Z,22.98
2022-12-13T23:09:33.956Z,23.20
2022-12-13T23:11:54.069Z,22.25
2022-12-13T23:13:58.643Z,22.52
2022-12-13T23:16:00.078Z,24.05
2022-12-13T23:18:01.505Z,23.23
2022-12-13T23:20:04.408Z,23.50
2022-12-13T23:22:08.417Z,25.00
2022-12-13T23:24:10.781Z,24.65
2022-12-13T23:26:19.554Z,34.00
2022-12-13T23:28:20.982Z,24.85
2022-12-13T23:30:22.502Z,23.92
2022-12-13T23:32:24.001Z,23.27
2022-12-13T23:34:25.454Z,23.25
2022-12-13T23:36:29.278Z,23.70
2022-12-13T23:38:31.501Z,23.85
2022-12-13T23:40:33.041Z,23.45
2022-12-13T23:42:34.485Z,21.58
2022-12-13T23:44:36.181Z,21.75
2022-12-13T23:46:37.874Z,22.45
2022-12-13T23:48:39.648Z,22.48
2022-12-13T23:50:41.588Z,21.85
2022-12-13T23:52:43.151Z,21.05
2022-12-13T23:54:44.634Z,21.42
2022-12-13T23:56:47.198Z,22.05
2022-12-13T23:58:49.090Z,21.33
